Time;durP1;ratioP1;P1;durP2;ratioP2;P2;SDS_P1;SDS_P2;PMS_P1;PMS_P2;Temp;Humidity;BMP_temperature;BMP_pressure;BME280_temperature;BME280_humidity;BME280_pressure;Samples;Min_cycle;Max_cycle;Signal;HPM_P1;HPM_P2
2021/12/17 00:04:39;;;;;;;41.78;19.05;;;3.30;99.90;;;;;;5034072;28;20292;-86
2021/12/17 00:07:11;;;;;;;39.83;20.17;;;3.40;99.90;;;;;;5020022;28;20177;-86
2021/12/17 00:09:38;;;;;;;42.42;19.70;;;3.50;99.90;;;;;;5033918;28;20260;-87
2021/12/17 00:12:09;;;;;;;38.53;19.80;;;3.50;99.90;;;;;;5032907;28;20270;-86
2021/12/17 00:14:37;;;;;;;45.45;19.52;;;3.50;99.90;;;;;;5019286;28;20188;-86
2021/12/17 00:17:07;;;;;;;34.55;19.27;;;3.60;99.90;;;;;;5033793;28;20261;-87
2021/12/17 00:49:26;;;;;;;29.95;14.05;;;4.30;99.90;;;;;;5045173;28;20185;-85
2021/12/17 00:52:00;;;;;;;27.67;14.10;;;5.80;99.90;;;;;;5022806;28;20194;-85
2021/12/17 00:54:41;;;;;;;28.95;13.57;;;4.40;99.90;;;;;;5040777;28;20182;-85
2021/12/17 00:57:15;;;;;;;27.15;12.93;;;5.00;99.90;;;;;;5036097;28;20192;-85
2021/12/17 00:59:44;;;;;;;34.60;14.00;;;4.50;99.90;;;;;;5024979;28;20314;-84
2021/12/17 01:02:12;;;;;;;34.80;14.43;;;4.50;99.90;;;;;;5051262;28;20193;-84
2021/12/17 01:04:49;;;;;;;34.22;15.77;;;4.60;99.90;;;;;;5041900;28;20206;-85
2021/12/17 01:07:15;;;;;;;38.72;17.95;;;4.60;99.90;;;;;;5008407;28;20193;-86
2021/12/17 01:09:41;;;;;;;182.80;31.70;;;4.50;99.90;;;;;;5022673;28;20182;-86
2021/12/17 01:12:08;;;;;;;46.30;21.47;;;4.20;99.90;;;;;;5012415;28;20989;-84
2021/12/17 01:14:35;;;;;;;45.25;20.65;;;4.00;99.90;;;;;;5017212;28;20276;-84
2021/12/17 01:17:02;;;;;;;176.95;31.75;;;3.90;99.90;;;;;;5034404;28;20328;-86
2021/12/17 01:22:48;;;;;;;69.28;24.20;;;4.70;99.90;;;;;;5034663;28;20237;-85
2021/12/17 01:25:33;;;;;;;46.20;24.25;;;3.80;99.90;;;;;;5012919;28;20200;-86
2021/12/17 01:36:12;;;;;;;44.95;22.35;;;4.00;99.90;;;;;;5037853;28;20189;-86
2021/12/17 01:43:55;;;;;;;39.72;22.58;;;3.90;99.90;;;;;;5029493;28;20240;-86
2021/12/17 01:46:26;;;;;;;45.23;20.97;;;3.80;99.90;;;;;;5025529;28;20178;-85
2021/12/17 01:59:50;;;;;;;33.47;19.33;;;4.20;99.90;;;;;;5004295;28;20204;-86
2021/12/17 02:02:16;;;;;;;34.15;19.10;;;4.30;99.90;;;;;;4982443;28;20421;-86
2021/12/17 02:04:43;;;;;;;33.30;18.00;;;4.40;99.90;;;;;;5015327;28;20965;-85
2021/12/17 02:07:09;;;;;;;37.25;19.15;;;4.40;99.90;;;;;;5022966;28;20213;-85
2021/12/17 02:28:43;;;;;;;49.25;23.83;;;4.00;99.90;;;;;;5012121;28;20197;-86
2021/12/17 02:32:03;;;;;;;52.78;26.05;;;3.90;99.90;;;;;;5008409;28;20217;-85
2021/12/17 02:37:01;;;;;;;49.83;23.65;;;3.90;99.90;;;;;;5005973;28;20246;-86
2021/12/17 02:47:31;;;;;;;49.75;26.15;;;3.80;99.90;;;;;;5006892;28;20212;-84
2021/12/17 02:49:56;;;;;;;48.23;25.20;;;3.70;99.90;;;;;;4988335;28;20730;-85
2021/12/17 02:52:28;;;;;;;52.57;25.87;;;3.70;99.90;;;;;;4988553;28;20475;-86
2021/12/17 02:54:55;;;;;;;49.90;25.10;;;3.80;99.90;;;;;;4988101;28;20287;-86
2021/12/17 02:57:21;;;;;;;48.55;25.55;;;3.70;99.90;;;;;;5003951;28;20193;-86
2021/12/17 02:59:46;;;;;;;46.40;26.50;;;3.80;99.90;;;;;;5004748;28;20538;-85
2021/12/17 03:02:12;;;;;;;49.50;28.00;;;3.90;99.90;;;;;;5004756;28;20213;-85
2021/12/17 03:04:40;;;;;;;73.30;26.70;;;3.80;99.90;;;;;;5006566;28;20209;-84
2021/12/17 03:07:09;;;;;;;48.30;25.20;;;3.90;99.90;;;;;;5008997;28;20182;-83
2021/12/17 03:12:27;;;;;;;50.38;25.52;;;3.90;99.90;;;;;;5028916;28;20220;-84
2021/12/17 03:15:10;;;;;;;45.78;24.23;;;4.00;99.90;;;;;;5026129;28;20177;-87
2021/12/17 03:25:37;;;;;;;55.58;25.27;;;4.30;99.90;;;;;;5048723;28;20251;-83
2021/12/17 03:28:03;;;;;;;52.75;25.33;;;4.20;99.90;;;;;;5026767;28;20201;-83
2021/12/17 03:30:29;;;;;;;41.70;22.50;;;4.10;99.90;;;;;;5010744;28;20189;-87
2021/12/17 03:32:54;;;;;;;50.70;25.30;;;4.00;99.90;;;;;;5031869;28;20197;-85
2021/12/17 03:35:20;;;;;;;45.53;24.13;;;4.00;99.90;;;;;;5018635;28;20240;-86
2021/12/17 03:37:45;;;;;;;45.77;26.20;;;4.10;99.90;;;;;;5035644;28;20186;-86
2021/12/17 03:40:14;;;;;;;49.50;25.63;;;4.20;99.90;;;;;;5029844;28;20182;-86
2021/12/17 03:42:46;;;;;;;49.67;25.75;;;4.00;99.90;;;;;;5015369;28;20214;-86
2021/12/17 03:45:12;;;;;;;52.05;24.42;;;4.00;99.90;;;;;;5009232;28;20190;-86
2021/12/17 03:47:38;;;;;;;49.03;25.45;;;4.00;99.90;;;;;;5005098;28;20177;-86
2021/12/17 03:50:04;;;;;;;48.70;26.13;;;4.00;99.90;;;;;;5004381;28;20185;-86
2021/12/17 03:52:30;;;;;;;45.92;24.67;;;4.00;99.90;;;;;;5005755;28;20204;-84
2021/12/17 03:54:56;;;;;;;45.33;22.37;;;3.90;99.90;;;;;;5005182;28;20189;-84
2021/12/17 03:57:22;;;;;;;44.53;23.47;;;3.80;99.90;;;;;;5017405;28;20210;-84
2021/12/17 03:59:48;;;;;;;48.38;24.15;;;3.80;99.90;;;;;;5007337;28;20468;-85
2021/12/17 04:02:14;;;;;;;47.57;25.03;;;3.90;99.90;;;;;;5014905;28;22143;-83
2021/12/17 04:04:40;;;;;;;49.13;24.10;;;4.00;99.90;;;;;;5024852;28;20211;-85
2021/12/17 04:07:06;;;;;;;49.00;24.30;;;4.10;99.90;;;;;;5026162;28;20182;-84
2021/12/17 04:09:32;;;;;;;55.00;25.93;;;4.10;99.90;;;;;;4999976;28;20485;-83
2021/12/17 04:12:00;;;;;;;50.78;23.02;;;4.10;99.90;;;;;;5009004;28;20221;-86
2021/12/17 04:14:33;;;;;;;47.33;25.52;;;4.00;99.90;;;;;;5035992;28;20182;-82
2021/12/17 04:17:03;;;;;;;45.38;25.27;;;4.10;99.90;;;;;;5035383;28;20174;-84
2021/12/17 04:19:30;;;;;;;53.70;25.90;;;;;;;;;;5023649;28;20658;-88
2021/12/17 04:21:56;;;;;;;51.05;25.08;;;;;;;;;;5021821;28;20206;-87
2021/12/17 04:24:21;;;;;;;41.90;23.67;;;4.20;99.90;;;;;;5006779;28;20240;-85
2021/12/17 04:26:48;;;;;;;53.37;22.83;;;4.10;99.90;;;;;;5026905;28;20655;-86
2021/12/17 04:29:14;;;;;;;41.45;23.02;;;4.00;99.90;;;;;;5016837;28;20213;-85
2021/12/17 04:31:40;;;;;;;40.03;22.73;;;4.00;99.90;;;;;;5026061;28;20198;-83
2021/12/17 04:34:06;;;;;;;49.37;23.37;;;4.20;99.90;;;;;;5020804;28;20204;-87
2021/12/17 04:36:35;;;;;;;40.08;22.48;;;4.10;99.90;;;;;;5006578;28;20182;-85
2021/12/17 04:39:01;;;;;;;42.58;20.73;;;4.30;99.90;;;;;;5025113;28;20681;-85
2021/12/17 04:41:43;;;;;;;35.75;20.10;;;;;;;;;;5044435;28;20190;-82
2021/12/17 04:44:22;;;;;;;37.65;18.92;;;5.00;99.90;;;;;;5038780;28;20198;-86
2021/12/17 04:57:35;;;;;;;45.67;25.10;;;4.30;99.90;;;;;;5033675;28;20185;-86
2021/12/17 05:00:05;;;;;;;42.17;20.63;;;4.20;99.90;;;;;;5013181;28;20316;-85
2021/12/17 05:02:34;;;;;;;45.58;22.20;;;4.20;99.90;;;;;;5031467;28;20291;-87
2021/12/17 05:05:05;;;;;;;45.90;23.17;;;4.10;99.90;;;;;;5011564;28;20225;-86
2021/12/17 05:07:33;;;;;;;43.42;22.80;;;4.00;99.90;;;;;;5030878;28;20174;-87
2021/12/17 05:10:18;;;;;;;47.47;20.67;;;4.00;99.90;;;;;;5029512;28;20265;-87
2021/12/17 05:20:50;;;;;;;40.60;19.95;;;4.10;99.90;;;;;;5033446;28;20181;-88
2021/12/17 05:23:22;;;;;;;46.53;22.52;;;4.10;99.90;;;;;;5029234;28;22645;-86
2021/12/17 05:25:48;;;;;;;100.93;49.97;;;4.00;99.90;;;;;;5012944;28;20800;-85
2021/12/17 05:28:14;;;;;;;44.07;24.97;;;;;;;;;;5030116;28;20433;-86
2021/12/17 05:30:45;;;;;;;41.87;20.90;;;4.00;99.90;;;;;;5017858;28;21463;-87
2021/12/17 05:33:11;;;;;;;49.70;24.48;;;4.10;99.90;;;;;;5014956;28;20583;-87
2021/12/17 05:35:37;;;;;;;43.60;25.97;;;4.10;99.90;;;;;;5012904;28;20192;-86
2021/12/17 05:38:02;;;;;;;38.07;22.80;;;4.20;99.90;;;;;;5026489;28;20514;-85
2021/12/17 05:40:28;;;;;;;61.40;26.50;;;4.10;99.90;;;;;;5031611;28;20668;-87
2021/12/17 05:42:58;;;;;;;72.53;32.03;;;4.00;99.90;;;;;;5009666;28;20584;-85
2021/12/17 05:45:34;;;;;;;77.28;36.42;;;4.00;99.90;;;;;;5025361;28;20268;-87
2021/12/17 05:48:01;;;;;;;25.38;14.43;;;4.10;99.90;;;;;;5005445;28;20177;-86
2021/12/17 05:50:27;;;;;;;30.20;17.05;;;4.30;99.90;;;;;;5026470;28;20174;-85
2021/12/17 05:52:52;;;;;;;27.93;15.27;;;4.40;99.90;;;;;;5009861;28;20262;-84
2021/12/17 05:55:18;;;;;;;35.77;16.60;;;4.50;99.90;;;;;;5016381;28;20207;-87
2021/12/17 05:57:43;;;;;;;28.37;15.13;;;4.50;99.90;;;;;;5012149;28;20185;-85
2021/12/17 06:00:11;;;;;;;28.40;17.50;;;4.40;99.90;;;;;;5035457;28;20202;-84
2021/12/17 06:02:36;;;;;;;32.47;18.70;;;4.50;99.90;;;;;;5004591;28;20216;-86
2021/12/17 06:05:02;;;;;;;33.87;19.60;;;4.60;99.90;;;;;;5025108;28;20213;-87
2021/12/17 06:07:29;;;;;;;31.03;18.97;;;4.50;99.90;;;;;;5028199;28;20257;-87
2021/12/17 06:09:59;;;;;;;40.13;22.15;;;4.40;99.90;;;;;;5011526;28;21055;-87
2021/12/17 06:12:24;;;;;;;40.90;21.77;;;4.50;99.90;;;;;;5012927;28;20217;-85
2021/12/17 06:14:51;;;;;;;31.30;17.80;;;4.50;99.90;;;;;;5017005;28;20202;-86
2021/12/17 06:17:17;;;;;;;34.30;18.23;;;4.50;99.90;;;;;;5003437;28;20192;-85
2021/12/17 06:19:43;;;;;;;30.60;18.33;;;4.60;99.90;;;;;;5023445;28;20437;-86
2021/12/17 06:22:08;;;;;;;36.50;20.63;;;4.60;99.90;;;;;;5012968;28;20205;-88
2021/12/17 06:24:34;;;;;;;34.33;18.47;;;4.70;99.90;;;;;;5000614;28;20503;-88
2021/12/17 06:27:00;;;;;;;28.50;18.00;;;;;;;;;;5022505;28;20201;-83
2021/12/17 06:29:25;;;;;;;29.23;16.47;;;4.70;99.90;;;;;;5037182;28;20186;-87
2021/12/17 06:31:51;;;;;;;29.23;17.23;;;4.80;99.90;;;;;;5022430;28;20494;-86
2021/12/17 06:34:17;;;;;;;25.90;15.93;;;4.80;99.90;;;;;;5004235;28;20220;-87
2021/12/17 06:36:42;;;;;;;32.93;19.40;;;4.90;99.90;;;;;;5001718;28;20281;-88
2021/12/17 06:39:08;;;;;;;30.00;18.40;;;4.80;99.90;;;;;;4999445;28;20190;-87
2021/12/17 06:41:34;;;;;;;29.87;17.83;;;4.60;99.90;;;;;;5002738;28;20202;-85
2021/12/17 06:44:00;;;;;;;42.50;19.52;;;4.40;99.90;;;;;;4995807;28;20243;-87
2021/12/17 06:46:37;;;;;;;38.42;18.02;;;4.50;99.90;;;;;;5032273;28;20264;-87
2021/12/17 06:49:23;;;;;;;33.92;19.25;;;4.50;99.90;;;;;;5008932;28;20185;-86
2021/12/17 06:58:06;;;;;;;35.78;19.00;;;4.70;99.90;;;;;;5015792;28;20556;-85
2021/12/17 07:11:33;;;;;;;46.20;21.63;;;4.20;99.90;;;;;;5023591;28;20200;-80
2021/12/17 07:17:13;;;;;;;41.38;23.50;;;4.30;99.90;;;;;;5036990;22;20322;-83
2021/12/17 07:20:44;;;;;;;42.67;22.00;;;4.30;99.90;;;;;;5037411;28;20190;-83
2021/12/17 07:33:06;;;;;;;30.87;17.70;;;4.80;99.90;;;;;;5036426;28;20180;-85
2021/12/17 07:41:03;;;;;;;28.63;16.48;;;4.50;99.90;;;;;;5031912;28;20181;-85
2021/12/17 07:46:00;;;;;;;30.65;16.88;;;4.10;99.90;;;;;;5046528;28;20663;-85
2021/12/17 07:48:26;;;;;;;26.97;16.33;;;4.10;99.90;;;;;;5033268;28;20279;-84
2021/12/17 07:50:52;;;;;;;26.90;15.53;;;4.10;99.90;;;;;;5036743;28;20185;-85
2021/12/17 07:53:19;;;;;;;26.45;15.00;;;4.10;99.90;;;;;;5040691;28;21139;-84
2021/12/17 07:55:44;;;;;;;21.52;13.98;;;4.00;99.90;;;;;;5043458;28;20177;-84
2021/12/17 07:58:11;;;;;;;18.07;13.90;;;4.10;99.90;;;;;;5054712;28;20625;-85
2021/12/17 08:00:37;;;;;;;19.25;12.23;;;4.10;99.90;;;;;;5054143;28;20173;-84
2021/12/17 08:03:03;;;;;;;23.43;13.13;;;4.10;99.90;;;;;;5032600;28;20197;-84
2021/12/17 08:05:31;;;;;;;20.70;13.50;;;;;;;;;;5031898;28;20519;-85
2021/12/17 08:07:57;;;;;;;21.92;11.57;;;3.70;99.90;;;;;;5030209;28;20497;-85
2021/12/17 08:10:22;;;;;;;18.30;11.20;;;3.50;99.90;;;;;;5048348;28;20177;-85
2021/12/17 08:12:49;;;;;;;18.83;10.23;;;3.40;99.90;;;;;;5042487;28;20181;-85
2021/12/17 08:15:15;;;;;;;21.20;11.70;;;3.70;99.90;;;;;;5026449;28;20177;-85
2021/12/17 08:26:00;;;;;;;11.63;7.80;;;8.40;99.90;;;;;;5044432;28;20203;-84
2021/12/17 08:28:29;;;;;;;12.82;7.68;;;9.70;99.90;;;;;;5021034;28;20216;-85
2021/12/17 08:30:54;;;;;;;12.23;7.53;;;8.90;99.90;;;;;;5023169;28;20280;-85
2021/12/17 08:33:21;;;;;;;15.20;8.10;;;;;;;;;;5029991;28;20719;-84
2021/12/17 08:35:47;;;;;;;13.70;9.65;;;8.70;99.90;;;;;;5023525;28;20173;-84
2021/12/17 08:38:13;;;;;;;9.90;6.00;;;8.50;99.90;;;;;;5042110;28;20254;-84
2021/12/17 08:40:39;;;;;;;11.73;6.38;;;9.40;99.90;;;;;;5041246;28;20920;-84
2021/12/17 08:43:05;;;;;;;18.53;10.97;;;11.30;99.90;;;;;;5046245;28;20199;-84
2021/12/17 08:45:31;;;;;;;12.73;8.60;;;11.30;99.90;;;;;;5043384;28;20192;-85
2021/12/17 08:47:57;;;;;;;12.13;9.10;;;11.70;99.90;;;;;;5041054;28;20241;-84
2021/12/17 08:50:23;;;;;;;12.60;7.57;;;12.10;99.90;;;;;;5042190;28;20492;-84
2021/12/17 08:52:49;;;;;;;11.65;7.38;;;12.10;99.90;;;;;;5044865;28;20188;-85
2021/12/17 08:55:15;;;;;;;11.20;7.33;;;12.10;99.90;;;;;;5041188;28;20184;-85
2021/12/17 08:57:41;;;;;;;9.07;6.20;;;12.20;99.90;;;;;;5038313;28;20201;-83
2021/12/17 09:00:09;;;;;;;11.40;7.83;;;13.60;99.90;;;;;;5024187;28;20436;-84
2021/12/17 09:02:36;;;;;;;8.37;6.53;;;;;;;;;;5025922;28;20442;-83
2021/12/17 09:05:07;;;;;;;10.60;8.20;;;14.20;99.90;;;;;;5023945;28;20572;-83
2021/12/17 09:07:33;;;;;;;11.33;7.80;;;14.90;99.90;;;;;;5042604;28;20451;-84
2021/12/17 09:09:59;;;;;;;12.90;8.33;;;;;;;;;;5045956;28;20435;-84
2021/12/17 09:12:25;;;;;;;14.63;10.13;;;;;;;;;;5048741;28;20428;-84
2021/12/17 09:14:51;;;;;;;14.40;10.20;;;13.70;99.90;;;;;;5044996;28;20440;-83
2021/12/17 09:17:19;;;;;;;14.20;10.00;;;13.70;99.90;;;;;;5041528;28;20515;-84
2021/12/17 09:19:45;;;;;;;16.07;10.17;;;;;;;;;;5025663;28;20446;-84
2021/12/17 09:22:11;;;;;;;15.57;10.10;;;;;;;;;;5045097;28;20440;-84
2021/12/17 09:24:36;;;;;;;14.43;11.03;;;14.10;99.90;;;;;;5043567;28;20903;-84
2021/12/17 09:27:02;;;;;;;16.20;11.00;;;13.90;99.90;;;;;;5050766;28;20454;-84
2021/12/17 09:29:28;;;;;;;17.83;11.43;;;;;;;;;;5043081;28;20208;-84
2021/12/17 09:31:54;;;;;;;24.30;14.10;;;;;;;;;;5024260;28;20188;-84
2021/12/17 09:34:20;;;;;;;17.80;12.50;;;12.80;99.90;;;;;;5042231;28;20848;-84
2021/12/17 09:36:46;;;;;;;18.03;12.10;;;11.20;99.90;;;;;;5019720;28;20460;-84
2021/12/17 09:39:12;;;;;;;20.93;12.00;;;11.10;99.90;;;;;;5038589;28;20476;-83
2021/12/17 09:41:43;;;;;;;19.43;13.80;;;10.40;99.90;;;;;;5022033;28;20224;-84
2021/12/17 09:44:13;;;;;;;24.13;14.18;;;9.90;99.90;;;;;;5037969;28;20623;-84
2021/12/17 09:46:39;;;;;;;20.30;12.52;;;9.50;99.90;;;;;;5036479;28;20782;-83
2021/12/17 09:49:04;;;;;;;21.17;12.10;;;9.20;99.90;;;;;;5035585;28;20329;-83
2021/12/17 09:51:30;;;;;;;24.57;13.00;;;8.80;99.90;;;;;;5042689;28;20204;-83
2021/12/17 09:53:55;;;;;;;22.87;13.50;;;8.60;99.90;;;;;;5017214;28;20201;-84
2021/12/17 09:56:21;;;;;;;12.60;10.00;;;8.40;99.90;;;;;;5039865;28;20843;-83
2021/12/17 09:58:46;;;;;;;19.30;12.93;;;8.40;99.90;;;;;;5032886;28;20188;-83
2021/12/17 10:01:12;;;;;;;18.50;12.57;;;8.30;99.90;;;;;;5050419;28;20211;-83
2021/12/17 10:03:37;;;;;;;21.17;13.07;;;8.30;99.90;;;;;;5020186;28;20220;-84
2021/12/17 10:06:03;;;;;;;19.00;13.03;;;8.10;99.90;;;;;;5037277;28;20269;-84
2021/12/17 10:08:29;;;;;;;19.13;11.97;;;7.90;99.90;;;;;;5038962;28;20205;-84
2021/12/17 10:11:03;;;;;;;18.00;12.00;;;7.70;99.90;;;;;;5039140;28;20189;-84
2021/12/17 10:13:31;;;;;;;16.55;9.93;;;7.70;99.90;;;;;;5022085;28;20181;-83
2021/12/17 10:16:06;;;;;;;18.35;12.00;;;7.90;99.90;;;;;;5034654;28;20642;-83
2021/12/17 10:18:38;;;;;;;16.63;10.68;;;7.90;99.90;;;;;;5039788;28;20567;-84
2021/12/17 10:21:16;;;;;;;17.75;9.60;;;7.90;99.90;;;;;;5038652;28;20519;-84
2021/12/17 10:23:42;;;;;;;14.70;10.60;;;7.80;99.90;;;;;;5021129;28;20209;-84
2021/12/17 10:26:13;;;;;;;13.93;9.68;;;7.70;99.90;;;;;;5038567;28;20184;-84
2021/12/17 10:28:54;;;;;;;19.23;11.57;;;7.70;99.90;;;;;;5039810;28;20200;-84
2021/12/17 10:31:20;;;;;;;17.25;10.68;;;7.70;99.90;;;;;;5040296;28;20181;-84
2021/12/17 10:33:51;;;;;;;15.80;10.03;;;7.70;99.90;;;;;;5047979;28;20185;-84
2021/12/17 10:36:17;;;;;;;21.85;12.18;;;7.80;99.90;;;;;;5041021;28;20431;-84
2021/12/17 10:38:46;;;;;;;18.77;10.43;;;7.80;99.90;;;;;;5023964;28;20279;-84
2021/12/17 10:41:14;;;;;;;19.17;12.18;;;7.90;99.90;;;;;;5038787;28;20173;-83
2021/12/17 10:43:48;;;;;;;17.95;11.32;;;7.90;99.90;;;;;;5036343;28;20214;-84
2021/12/17 10:46:31;;;;;;;17.40;10.93;;;8.10;99.90;;;;;;5040749;28;20169;-84
2021/12/17 10:49:17;;;;;;;15.48;9.93;;;8.10;99.90;;;;;;5050831;28;20204;-83
2021/12/17 10:51:46;;;;;;;16.35;10.38;;;8.20;99.90;;;;;;5022537;28;20196;-84
2021/12/17 10:54:18;;;;;;;14.57;10.07;;;8.30;99.90;;;;;;5018609;28;20227;-83
2021/12/17 10:56:51;;;;;;;21.55;12.20;;;8.30;99.90;;;;;;5036498;28;20201;-83
2021/12/17 10:59:22;;;;;;;19.40;11.68;;;8.30;99.90;;;;;;5042640;28;20220;-83
2021/12/17 11:01:54;;;;;;;21.27;10.85;;;8.10;99.90;;;;;;5045536;28;20210;-82
2021/12/17 11:04:32;;;;;;;15.40;9.88;;;8.10;99.90;;;;;;5032170;28;20753;-83
2021/12/17 11:06:58;;;;;;;14.23;10.25;;;8.10;99.90;;;;;;5048858;28;20201;-82
2021/12/17 11:09:35;;;;;;;15.52;10.13;;;8.20;99.90;;;;;;5048355;28;20177;-83
2021/12/17 11:12:15;;;;;;;13.40;8.40;;;8.30;99.90;;;;;;5048304;28;20196;-83
2021/12/17 11:14:45;;;;;;;13.85;10.43;;;8.30;99.90;;;;;;5048933;28;20177;-84
2021/12/17 11:17:13;;;;;;;12.50;8.73;;;8.30;99.90;;;;;;5046686;28;20311;-83
2021/12/17 11:19:40;;;;;;;16.35;9.30;;;8.40;99.90;;;;;;5047132;28;20189;-83
2021/12/17 11:22:06;;;;;;;13.25;8.65;;;8.40;99.90;;;;;;5046980;28;20204;-82
2021/12/17 11:24:34;;;;;;;17.73;9.97;;;8.50;99.90;;;;;;5033673;28;20213;-83
2021/12/17 11:27:02;;;;;;;12.30;8.20;;;8.60;99.90;;;;;;5046928;28;20527;-83
2021/12/17 11:29:32;;;;;;;14.23;8.10;;;8.70;99.90;;;;;;5019886;28;20204;-85
2021/12/17 11:32:05;;;;;;;16.05;9.95;;;8.60;99.90;;;;;;5025190;28;20180;-85
2021/12/17 11:34:33;;;;;;;14.25;8.60;;;8.70;99.90;;;;;;5028901;28;20185;-86
2021/12/17 11:37:07;;;;;;;20.10;9.95;;;9.30;99.90;;;;;;5031014;28;20612;-86
2021/12/17 11:39:58;;;;;;;11.43;8.50;;;9.40;99.90;;;;;;5033122;28;20268;-85
2021/12/17 11:43:10;;;;;;;12.68;7.82;;;9.90;99.90;;;;;;5038000;28;20741;-84
2021/12/17 11:45:35;;;;;;;13.27;8.85;;;9.90;99.90;;;;;;5033904;28;20193;-85
2021/12/17 11:48:16;;;;;;;18.60;10.40;;;10.40;99.90;;;;;;5029052;28;20208;-84
2021/12/17 11:50:42;;;;;;;16.05;9.35;;;10.10;99.90;;;;;;5045595;28;20521;-84
2021/12/17 11:53:21;;;;;;;17.15;9.40;;;9.90;99.90;;;;;;5047599;28;20260;-84
2021/12/17 11:55:59;;;;;;;14.05;8.75;;;10.00;99.90;;;;;;5048621;28;20196;-84
2021/12/17 11:58:48;;;;;;;14.35;9.00;;;9.90;99.90;;;;;;5045578;28;20196;-84
2021/12/17 12:01:33;;;;;;;10.85;8.02;;;9.70;99.90;;;;;;5044582;28;20177;-83
2021/12/17 12:04:31;;;;;;;14.30;9.63;;;9.30;99.90;;;;;;5046535;28;20708;-84
2021/12/17 12:07:06;;;;;;;14.13;9.02;;;9.10;99.90;;;;;;5001011;28;20205;-84
2021/12/17 12:09:59;;;;;;;14.25;8.07;;;8.90;99.90;;;;;;5045714;28;20300;-84
2021/12/17 12:12:42;;;;;;;9.45;6.57;;;8.80;99.90;;;;;;5020015;28;20208;-84
2021/12/17 12:15:16;;;;;;;9.27;5.22;;;8.70;99.90;;;;;;5047239;28;20215;-84
2021/12/17 12:17:57;;;;;;;15.90;8.85;;;8.60;99.90;;;;;;5045159;28;20693;-83
2021/12/17 12:20:44;;;;;;;14.02;9.05;;;8.40;99.90;;;;;;5046615;28;20194;-84
2021/12/17 12:23:33;;;;;;;18.25;8.95;;;8.40;99.90;;;;;;5045153;28;20508;-84
2021/12/17 12:26:01;;;;;;;15.43;9.45;;;8.40;99.90;;;;;;4999820;28;20194;-84
2021/12/17 12:28:45;;;;;;;12.43;6.93;;;8.50;99.90;;;;;;5044714;28;20521;-84
2021/12/17 12:31:17;;;;;;;12.60;7.40;;;8.30;99.90;;;;;;5044102;28;20275;-83
2021/12/17 12:34:06;;;;;;;11.35;7.10;;;8.30;99.90;;;;;;5048298;28;20185;-84
2021/12/17 12:36:47;;;;;;;13.98;8.13;;;8.30;99.90;;;;;;5044385;28;20196;-83
2021/12/17 12:39:33;;;;;;;13.05;8.80;;;8.20;99.90;;;;;;5043132;28;20668;-84
2021/12/17 12:42:22;;;;;;;15.50;8.57;;;8.30;99.90;;;;;;5045815;28;20177;-84
2021/12/17 12:44:47;;;;;;;14.10;8.57;;;8.10;99.90;;;;;;5050137;28;20205;-83
2021/12/17 12:47:33;;;;;;;12.60;7.17;;;8.10;99.90;;;;;;5053404;28;20201;-83
2021/12/17 12:50:06;;;;;;;12.13;7.20;;;8.20;99.90;;;;;;5048966;28;20250;-84
2021/12/17 12:52:43;;;;;;;12.93;7.47;;;8.10;99.90;;;;;;5030751;28;20290;-83
2021/12/17 12:55:33;;;;;;;11.65;6.75;;;8.10;99.90;;;;;;5049744;28;20523;-84
2021/12/17 12:57:59;;;;;;;11.80;8.20;;;8.00;99.90;;;;;;5051728;28;20201;-83
2021/12/17 13:00:48;;;;;;;12.40;8.30;;;7.70;99.90;;;;;;5029724;28;20250;-83
2021/12/17 13:03:25;;;;;;;14.70;9.18;;;7.70;99.90;;;;;;5050418;28;20185;-83
2021/12/17 13:05:51;;;;;;;14.98;9.52;;;7.70;99.90;;;;;;5048433;28;20230;-83
2021/12/17 13:08:21;;;;;;;14.20;10.37;;;7.60;99.90;;;;;;5028814;28;20202;-83
2021/12/17 13:10:54;;;;;;;13.93;8.95;;;7.40;99.90;;;;;;5050227;28;20424;-83
2021/12/17 13:21:18;;;;;;;9.70;6.50;;;7.60;99.90;;;;;;5045769;28;20182;-85
2021/12/17 13:23:55;;;;;;;10.18;6.95;;;7.60;99.90;;;;;;5039804;28;20704;-84
2021/12/17 13:26:23;;;;;;;10.45;5.68;;;7.60;99.90;;;;;;5016918;28;20636;-82
2021/12/17 13:28:54;;;;;;;11.18;6.43;;;7.60;99.90;;;;;;5034770;28;20181;-85
2021/12/17 13:31:47;;;;;;;10.75;5.28;;;7.50;99.90;;;;;;5034451;28;20170;-85
2021/12/17 13:34:23;;;;;;;7.55;5.57;;;7.50;99.90;;;;;;5039080;28;20213;-85
2021/12/17 13:36:57;;;;;;;9.90;7.00;;;7.50;99.90;;;;;;5017249;28;20200;-86
2021/12/17 13:39:27;;;;;;;10.80;6.15;;;7.60;99.90;;;;;;5024579;28;20192;-84
2021/12/17 13:41:53;;;;;;;11.93;6.47;;;7.70;99.90;;;;;;5024694;28;20189;-84
2021/12/17 13:44:33;;;;;;;10.63;6.43;;;7.70;99.90;;;;;;5015759;28;20633;-86
2021/12/17 13:47:14;;;;;;;8.88;6.53;;;7.80;99.90;;;;;;5004915;28;20182;-86
2021/12/17 13:50:01;;;;;;;8.50;5.65;;;7.80;99.90;;;;;;5019566;28;20182;-86
2021/12/17 13:52:30;;;;;;;7.63;5.20;;;7.90;99.90;;;;;;5034569;28;20190;-85
2021/12/17 13:54:58;;;;;;;9.57;5.93;;;7.90;99.90;;;;;;5023906;28;20188;-85
2021/12/17 13:57:27;;;;;;;10.27;6.90;;;7.70;99.90;;;;;;5032144;28;20192;-85
2021/12/17 14:00:12;;;;;;;18.67;10.73;;;7.70;99.90;;;;;;5033076;28;20659;-84
2021/12/17 14:02:39;;;;;;;11.82;8.05;;;7.40;99.90;;;;;;5030521;28;20986;-85
2021/12/17 14:05:15;;;;;;;24.42;13.02;;;7.40;99.90;;;;;;5034655;28;20244;-84
2021/12/17 14:07:41;;;;;;;87.30;40.58;;;7.30;99.90;;;;;;5038155;28;20224;-84
2021/12/17 14:10:14;;;;;;;7.00;5.53;;;7.30;99.90;;;;;;5032035;28;20252;-85
2021/12/17 14:12:41;;;;;;;8.77;6.22;;;7.20;99.90;;;;;;4999083;28;20194;-86
2021/12/17 14:15:15;;;;;;;8.57;6.25;;;7.30;99.90;;;;;;5004696;28;20273;-84
2021/12/17 14:17:44;;;;;;;10.32;6.80;;;7.10;99.90;;;;;;5016195;28;20359;-86
2021/12/17 14:20:13;;;;;;;13.85;9.95;;;7.10;99.90;;;;;;5038865;28;20196;-85
2021/12/17 14:22:44;;;;;;;12.77;7.43;;;7.00;99.90;;;;;;5021817;28;20630;-85
2021/12/17 14:25:34;;;;;;;8.52;6.15;;;6.90;99.90;;;;;;5034846;28;20292;-85
2021/12/17 14:28:07;;;;;;;10.85;6.85;;;6.90;99.90;;;;;;5030505;28;20190;-84
2021/12/17 14:30:33;;;;;;;10.65;6.95;;;6.90;99.90;;;;;;5032784;28;20190;-84
2021/12/17 14:33:15;;;;;;;9.77;7.30;;;6.80;99.90;;;;;;5030676;28;20198;-86
2021/12/17 14:35:51;;;;;;;13.50;7.45;;;6.70;99.90;;;;;;5031409;28;20467;-83
2021/12/17 14:38:20;;;;;;;12.13;8.15;;;6.60;99.90;;;;;;5035719;28;20194;-85
2021/12/17 14:40:57;;;;;;;15.68;10.05;;;6.50;99.90;;;;;;5014210;28;20232;-85
2021/12/17 14:43:31;;;;;;;20.15;12.85;;;6.60;99.90;;;;;;5019945;28;20200;-85
2021/12/17 14:46:29;;;;;;;19.45;11.80;;;6.70;99.90;;;;;;5013059;28;21241;-85
2021/12/17 14:49:16;;;;;;;12.77;9.48;;;6.60;99.90;;;;;;5010932;28;20191;-86
2021/12/17 15:06:03;;;;;;;25.48;14.05;;;6.50;99.90;;;;;;5011439;28;20193;-82
2021/12/17 15:08:30;;;;;;;18.93;12.07;;;6.40;99.90;;;;;;5034998;28;20186;-85
2021/12/17 15:10:57;;;;;;;17.95;10.65;;;6.40;99.90;;;;;;5021939;28;20185;-86
2021/12/17 15:13:22;;;;;;;16.52;11.75;;;6.40;99.90;;;;;;5031270;28;20376;-85
2021/12/17 15:15:48;;;;;;;16.57;9.33;;;;;;;;;;5035169;28;20201;-83
2021/12/17 15:18:17;;;;;;;22.60;11.20;;;6.30;99.90;;;;;;5035938;28;20189;-84
2021/12/17 15:20:48;;;;;;;21.17;14.32;;;6.40;99.90;;;;;;5017740;28;20436;-85
2021/12/17 15:23:15;;;;;;;14.68;10.05;;;6.30;99.90;;;;;;5037895;28;20213;-84
2021/12/17 15:25:42;;;;;;;10.02;8.32;;;6.20;99.90;;;;;;5039618;28;20211;-85
2021/12/17 15:28:10;;;;;;;20.33;11.93;;;6.30;99.90;;;;;;5007272;28;20771;-84
2021/12/17 15:30:39;;;;;;;18.35;12.02;;;6.20;99.90;;;;;;5016764;28;20207;-85
2021/12/17 15:33:05;;;;;;;20.95;13.18;;;6.20;99.90;;;;;;5033944;28;20272;-85
2021/12/17 15:35:32;;;;;;;16.33;10.23;;;6.30;99.90;;;;;;5033191;28;20672;-84
2021/12/17 15:37:59;;;;;;;14.13;10.13;;;6.20;99.90;;;;;;5024135;28;20312;-84
2021/12/17 15:40:25;;;;;;;13.48;9.50;;;6.20;99.90;;;;;;5014807;28;20188;-84
2021/12/17 15:42:51;;;;;;;17.40;9.00;;;6.30;99.90;;;;;;5030958;28;20216;-85
2021/12/17 15:45:17;;;;;;;15.13;7.85;;;6.30;99.90;;;;;;5033236;28;20197;-85
2021/12/17 15:47:44;;;;;;;14.32;9.20;;;6.30;99.90;;;;;;5017903;28;20186;-85
2021/12/17 15:50:14;;;;;;;12.88;8.73;;;6.20;99.90;;;;;;5029752;28;20193;-84
2021/12/17 15:52:46;;;;;;;13.23;8.70;;;;;;;;;;5006384;28;20239;-83
2021/12/17 15:55:14;;;;;;;12.48;8.25;;;6.20;99.90;;;;;;5035811;28;20591;-83
2021/12/17 15:57:40;;;;;;;14.10;9.88;;;6.10;99.90;;;;;;5032101;28;20220;-84
2021/12/17 16:00:08;;;;;;;10.57;7.60;;;6.10;99.90;;;;;;5034397;28;20602;-85
2021/12/17 16:02:35;;;;;;;14.77;10.32;;;;;;;;;;5031145;28;20202;-83
2021/12/17 16:05:02;;;;;;;17.80;9.90;;;6.10;99.90;;;;;;5019299;28;20224;-85
2021/12/17 16:07:27;;;;;;;16.13;9.38;;;6.10;99.90;;;;;;5029960;28;20203;-83
2021/12/17 16:21:07;;;;;;;15.48;8.75;;;5.80;99.90;;;;;;5036195;28;20220;-85
2021/12/17 16:23:08;;;;;;;16.77;10.18;;;5.80;99.90;;;;;;5027706;28;20211;-85